sensor_id;sensor_type;location;lat;lon;timestamp;P1;durP1;ratioP1;P2;durP2;ratioP2
5363;SDS011;2705;41.410;2.160;2022-10-13T00:01:58;9.00;;;5.07;;
5363;SDS011;2705;41.410;2.160;2022-10-13T00:04:30;7.47;;;4.10;;
5363;SDS011;2705;41.410;2.160;2022-10-13T00:06:59;11.10;;;4.37;;
5363;SDS011;2705;41.410;2.160;2022-10-13T00:09:28;9.73;;;5.17;;
5363;SDS011;2705;41.410;2.160;2022-10-13T00:11:57;8.23;;;4.57;;
5363;SDS011;2705;41.410;2.160;2022-10-13T00:14:26;6.70;;;4.27;;
5363;SDS011;2705;41.410;2.160;2022-10-13T00:16:58;9.23;;;4.50;;
5363;SDS011;2705;41.410;2.160;2022-10-13T00:19:27;11.87;;;4.90;;
5363;SDS011;2705;41.410;2.160;2022-10-13T00:21:57;8.73;;;4.60;;
5363;SDS011;2705;41.410;2.160;2022-10-13T00:24:26;6.03;;;4.70;;
5363;SDS011;2705;41.410;2.160;2022-10-13T00:26:56;11.10;;;5.10;;
5363;SDS011;2705;41.410;2.160;2022-10-13T00:29:25;7.20;;;4.43;;
5363;SDS011;2705;41.410;2.160;2022-10-13T00:31:56;7.23;;;4.80;;
5363;SDS011;2705;41.410;2.160;2022-10-13T00:34:27;8.00;;;4.50;;
5363;SDS011;2705;41.410;2.160;2022-10-13T00:36:57;5.47;;;4.30;;
5363;SDS011;2705;41.410;2.160;2022-10-13T00:39:26;5.20;;;4.40;;
5363;SDS011;2705;41.410;2.160;2022-10-13T00:41:55;11.17;;;5.13;;
5363;SDS011;2705;41.410;2.160;2022-10-13T00:47:30;9.00;;;5.73;;
5363;SDS011;2705;41.410;2.160;2022-10-13T00:50:04;6.13;;;4.90;;
5363;SDS011;2705;41.410;2.160;2022-10-13T00:52:36;9.57;;;4.33;;
5363;SDS011;2705;41.410;2.160;2022-10-13T00:55:10;9.33;;;4.27;;
5363;SDS011;2705;41.410;2.160;2022-10-13T00:57:40;6.30;;;3.90;;
5363;SDS011;2705;41.410;2.160;2022-10-13T01:00:11;8.10;;;4.50;;
5363;SDS011;2705;41.410;2.160;2022-10-13T01:02:43;6.63;;;4.80;;
5363;SDS011;2705;41.410;2.160;2022-10-13T01:05:12;12.80;;;5.20;;
5363;SDS011;2705;41.410;2.160;2022-10-13T01:07:41;9.90;;;4.20;;
5363;SDS011;2705;41.410;2.160;2022-10-13T01:10:15;6.70;;;4.70;;
5363;SDS011;2705;41.410;2.160;2022-10-13T01:12:56;5.80;;;4.40;;
5363;SDS011;2705;41.410;2.160;2022-10-13T01:15:29;6.10;;;4.60;;
5363;SDS011;2705;41.410;2.160;2022-10-13T01:18:09;7.90;;;4.60;;
5363;SDS011;2705;41.410;2.160;2022-10-13T01:20:52;7.97;;;4.77;;
5363;SDS011;2705;41.410;2.160;2022-10-13T01:23:44;6.03;;;4.07;;
5363;SDS011;2705;41.410;2.160;2022-10-13T01:26:36;9.03;;;4.50;;
5363;SDS011;2705;41.410;2.160;2022-10-13T01:32:26;15.10;;;4.63;;
5363;SDS011;2705;41.410;2.160;2022-10-13T01:35:00;8.23;;;4.07;;
5363;SDS011;2705;41.410;2.160;2022-10-13T01:37:42;4.37;;;3.53;;
5363;SDS011;2705;41.410;2.160;2022-10-13T01:40:15;8.47;;;3.50;;
5363;SDS011;2705;41.410;2.160;2022-10-13T01:42:52;8.70;;;4.40;;
5363;SDS011;2705;41.410;2.160;2022-10-13T01:45:27;12.13;;;4.27;;
5363;SDS011;2705;41.410;2.160;2022-10-13T01:48:01;6.10;;;4.90;;
5363;SDS011;2705;41.410;2.160;2022-10-13T01:50:39;8.23;;;4.33;;
5363;SDS011;2705;41.410;2.160;2022-10-13T01:53:09;4.13;;;3.47;;
5363;SDS011;2705;41.410;2.160;2022-10-13T01:55:47;6.70;;;3.60;;
5363;SDS011;2705;41.410;2.160;2022-10-13T01:58:18;6.13;;;3.90;;
5363;SDS011;2705;41.410;2.160;2022-10-13T02:00:52;6.93;;;4.57;;
5363;SDS011;2705;41.410;2.160;2022-10-13T02:03:46;7.23;;;4.53;;
5363;SDS011;2705;41.410;2.160;2022-10-13T02:06:24;7.50;;;4.80;;
5363;SDS011;2705;41.410;2.160;2022-10-13T02:09:02;8.87;;;4.67;;
5363;SDS011;2705;41.410;2.160;2022-10-13T02:11:37;13.23;;;5.30;;
5363;SDS011;2705;41.410;2.160;2022-10-13T02:14:10;10.40;;;6.07;;
5363;SDS011;2705;41.410;2.160;2022-10-13T02:16:44;7.30;;;5.33;;
5363;SDS011;2705;41.410;2.160;2022-10-13T02:19:16;7.43;;;4.70;;
5363;SDS011;2705;41.410;2.160;2022-10-13T02:21:46;6.53;;;4.87;;
5363;SDS011;2705;41.410;2.160;2022-10-13T02:24:16;8.23;;;4.47;;
5363;SDS011;2705;41.410;2.160;2022-10-13T02:26:46;16.47;;;8.50;;
5363;SDS011;2705;41.410;2.160;2022-10-13T02:29:18;9.40;;;5.33;;
5363;SDS011;2705;41.410;2.160;2022-10-13T02:31:47;12.50;;;4.77;;
5363;SDS011;2705;41.410;2.160;2022-10-13T02:34:18;10.50;;;4.60;;
5363;SDS011;2705;41.410;2.160;2022-10-13T02:36:47;6.40;;;4.60;;
5363;SDS011;2705;41.410;2.160;2022-10-13T02:39:19;8.23;;;4.40;;
5363;SDS011;2705;41.410;2.160;2022-10-13T02:41:49;7.73;;;4.83;;
5363;SDS011;2705;41.410;2.160;2022-10-13T02:44:18;6.40;;;4.80;;
5363;SDS011;2705;41.410;2.160;2022-10-13T02:46:47;10.70;;;4.30;;
5363;SDS011;2705;41.410;2.160;2022-10-13T02:49:19;10.93;;;5.00;;
5363;SDS011;2705;41.410;2.160;2022-10-13T02:51:50;7.33;;;4.53;;
5363;SDS011;2705;41.410;2.160;2022-10-13T02:54:20;9.53;;;5.60;;
5363;SDS011;2705;41.410;2.160;2022-10-13T02:56:49;10.30;;;5.83;;
5363;SDS011;2705;41.410;2.160;2022-10-13T03:11:20;8.60;;;4.50;;
5363;SDS011;2705;41.410;2.160;2022-10-13T03:14:25;4.83;;;4.20;;
5363;SDS011;2705;41.410;2.160;2022-10-13T03:17:31;11.10;;;5.00;;
5363;SDS011;2705;41.410;2.160;2022-10-13T03:20:36;8.07;;;4.80;;
5363;SDS011;2705;41.410;2.160;2022-10-13T03:23:41;10.43;;;5.97;;
5363;SDS011;2705;41.410;2.160;2022-10-13T03:26:12;10.33;;;6.20;;
5363;SDS011;2705;41.410;2.160;2022-10-13T03:41:06;9.47;;;6.23;;
5363;SDS011;2705;41.410;2.160;2022-10-13T03:44:32;10.70;;;6.77;;
5363;SDS011;2705;41.410;2.160;2022-10-13T03:47:56;8.87;;;6.80;;
5363;SDS011;2705;41.410;2.160;2022-10-13T03:51:21;9.37;;;6.87;;
5363;SDS011;2705;41.410;2.160;2022-10-13T03:54:46;11.27;;;6.00;;
5363;SDS011;2705;41.410;2.160;2022-10-13T03:57:20;10.03;;;7.00;;
5363;SDS011;2705;41.410;2.160;2022-10-13T03:59:50;9.27;;;6.67;;
5363;SDS011;2705;41.410;2.160;2022-10-13T04:02:25;7.73;;;5.03;;
5363;SDS011;2705;41.410;2.160;2022-10-13T04:04:58;8.13;;;5.60;;
5363;SDS011;2705;41.410;2.160;2022-10-13T04:07:29;8.17;;;5.40;;
5363;SDS011;2705;41.410;2.160;2022-10-13T04:10:03;16.13;;;5.97;;
5363;SDS011;2705;41.410;2.160;2022-10-13T04:12:40;8.67;;;5.77;;
5363;SDS011;2705;41.410;2.160;2022-10-13T04:15:09;8.23;;;5.30;;
5363;SDS011;2705;41.410;2.160;2022-10-13T04:17:39;7.80;;;5.67;;
5363;SDS011;2705;41.410;2.160;2022-10-13T04:20:09;10.40;;;6.50;;
5363;SDS011;2705;41.410;2.160;2022-10-13T04:22:38;8.77;;;6.37;;
5363;SDS011;2705;41.410;2.160;2022-10-13T04:25:08;8.93;;;6.60;;
5363;SDS011;2705;41.410;2.160;2022-10-13T04:27:37;13.83;;;6.77;;
5363;SDS011;2705;41.410;2.160;2022-10-13T04:30:09;12.57;;;7.03;;
5363;SDS011;2705;41.410;2.160;2022-10-13T04:32:39;13.13;;;6.50;;
5363;SDS011;2705;41.410;2.160;2022-10-13T04:35:10;8.63;;;6.37;;
5363;SDS011;2705;41.410;2.160;2022-10-13T04:37:39;13.77;;;7.30;;
5363;SDS011;2705;41.410;2.160;2022-10-13T04:40:11;12.60;;;7.27;;
5363;SDS011;2705;41.410;2.160;2022-10-13T04:42:42;12.17;;;7.30;;
5363;SDS011;2705;41.410;2.160;2022-10-13T04:45:12;13.53;;;7.00;;
5363;SDS011;2705;41.410;2.160;2022-10-13T04:47:41;11.87;;;7.53;;
5363;SDS011;2705;41.410;2.160;2022-10-13T04:50:10;16.23;;;7.70;;
5363;SDS011;2705;41.410;2.160;2022-10-13T04:52:40;12.63;;;7.23;;
5363;SDS011;2705;41.410;2.160;2022-10-13T04:55:09;11.43;;;6.33;;
5363;SDS011;2705;41.410;2.160;2022-10-13T04:57:39;18.30;;;7.30;;
5363;SDS011;2705;41.410;2.160;2022-10-13T05:00:13;11.33;;;7.23;;
5363;SDS011;2705;41.410;2.160;2022-10-13T05:02:43;12.93;;;7.30;;
5363;SDS011;2705;41.410;2.160;2022-10-13T05:05:12;15.57;;;7.20;;
5363;SDS011;2705;41.410;2.160;2022-10-13T05:07:41;14.83;;;7.40;;
5363;SDS011;2705;41.410;2.160;2022-10-13T05:10:11;11.40;;;7.50;;
5363;SDS011;2705;41.410;2.160;2022-10-13T05:12:40;16.20;;;9.07;;
5363;SDS011;2705;41.410;2.160;2022-10-13T05:15:10;14.90;;;8.70;;
5363;SDS011;2705;41.410;2.160;2022-10-13T05:17:41;16.93;;;7.50;;
5363;SDS011;2705;41.410;2.160;2022-10-13T05:20:11;8.83;;;6.30;;
5363;SDS011;2705;41.410;2.160;2022-10-13T05:22:40;10.77;;;6.40;;
5363;SDS011;2705;41.410;2.160;2022-10-13T05:25:10;18.23;;;7.33;;
5363;SDS011;2705;41.410;2.160;2022-10-13T05:27:39;12.53;;;7.30;;
5363;SDS011;2705;41.410;2.160;2022-10-13T05:30:09;13.83;;;7.20;;
5363;SDS011;2705;41.410;2.160;2022-10-13T05:32:39;14.50;;;8.20;;
5363;SDS011;2705;41.410;2.160;2022-10-13T05:35:10;19.30;;;9.20;;
5363;SDS011;2705;41.410;2.160;2022-10-13T05:37:39;15.50;;;7.30;;
5363;SDS011;2705;41.410;2.160;2022-10-13T05:40:09;17.83;;;8.37;;
5363;SDS011;2705;41.410;2.160;2022-10-13T05:42:39;19.47;;;9.50;;
5363;SDS011;2705;41.410;2.160;2022-10-13T05:45:09;38.57;;;15.50;;
5363;SDS011;2705;41.410;2.160;2022-10-13T05:47:40;31.93;;;9.87;;
5363;SDS011;2705;41.410;2.160;2022-10-13T05:50:10;16.70;;;9.50;;
5363;SDS011;2705;41.410;2.160;2022-10-13T05:52:40;18.27;;;9.80;;
5363;SDS011;2705;41.410;2.160;2022-10-13T05:55:11;19.03;;;8.80;;
5363;SDS011;2705;41.410;2.160;2022-10-13T05:57:44;18.10;;;9.90;;
5363;SDS011;2705;41.410;2.160;2022-10-13T06:00:19;16.50;;;9.70;;
5363;SDS011;2705;41.410;2.160;2022-10-13T06:02:51;18.93;;;8.73;;
5363;SDS011;2705;41.410;2.160;2022-10-13T06:05:26;29.53;;;8.93;;
5363;SDS011;2705;41.410;2.160;2022-10-13T06:07:57;19.10;;;9.30;;
5363;SDS011;2705;41.410;2.160;2022-10-13T06:10:27;21.43;;;9.60;;
5363;SDS011;2705;41.410;2.160;2022-10-13T06:12:57;14.70;;;9.90;;
5363;SDS011;2705;41.410;2.160;2022-10-13T06:15:26;21.40;;;10.60;;
5363;SDS011;2705;41.410;2.160;2022-10-13T06:17:57;18.50;;;9.87;;
5363;SDS011;2705;41.410;2.160;2022-10-13T06:20:28;17.83;;;9.47;;
5363;SDS011;2705;41.410;2.160;2022-10-13T06:22:57;20.30;;;9.57;;
5363;SDS011;2705;41.410;2.160;2022-10-13T06:25:27;15.47;;;9.07;;
5363;SDS011;2705;41.410;2.160;2022-10-13T06:27:56;13.63;;;7.20;;
5363;SDS011;2705;41.410;2.160;2022-10-13T06:30:26;15.80;;;9.07;;
5363;SDS011;2705;41.410;2.160;2022-10-13T06:32:56;17.67;;;6.90;;
5363;SDS011;2705;41.410;2.160;2022-10-13T06:35:26;11.30;;;4.90;;
5363;SDS011;2705;41.410;2.160;2022-10-13T06:37:56;14.17;;;5.90;;
5363;SDS011;2705;41.410;2.160;2022-10-13T06:40:26;12.27;;;6.27;;
5363;SDS011;2705;41.410;2.160;2022-10-13T06:42:55;12.97;;;6.20;;
5363;SDS011;2705;41.410;2.160;2022-10-13T06:45:25;12.97;;;5.70;;
5363;SDS011;2705;41.410;2.160;2022-10-13T06:47:54;11.17;;;5.13;;
5363;SDS011;2705;41.410;2.160;2022-10-13T06:50:24;12.10;;;5.70;;
5363;SDS011;2705;41.410;2.160;2022-10-13T06:52:55;9.93;;;6.10;;
5363;SDS011;2705;41.410;2.160;2022-10-13T06:55:25;5.93;;;3.80;;
5363;SDS011;2705;41.410;2.160;2022-10-13T06:57:54;9.27;;;4.33;;
5363;SDS011;2705;41.410;2.160;2022-10-13T07:00:24;6.97;;;4.63;;
5363;SDS011;2705;41.410;2.160;2022-10-13T07:02:54;10.43;;;4.80;;
5363;SDS011;2705;41.410;2.160;2022-10-13T07:05:25;10.87;;;4.57;;
5363;SDS011;2705;41.410;2.160;2022-10-13T07:07:56;11.63;;;5.70;;
5363;SDS011;2705;41.410;2.160;2022-10-13T07:10:25;14.00;;;4.80;;
5363;SDS011;2705;41.410;2.160;2022-10-13T07:12:55;10.57;;;5.17;;
5363;SDS011;2705;41.410;2.160;2022-10-13T07:15:25;8.77;;;4.60;;
5363;SDS011;2705;41.410;2.160;2022-10-13T07:17:55;9.83;;;5.00;;
5363;SDS011;2705;41.410;2.160;2022-10-13T07:20:24;14.50;;;6.73;;
5363;SDS011;2705;41.410;2.160;2022-10-13T07:22:56;23.40;;;8.70;;
5363;SDS011;2705;41.410;2.160;2022-10-13T07:25:25;21.30;;;9.40;;
5363;SDS011;2705;41.410;2.160;2022-10-13T07:27:54;29.10;;;10.93;;
5363;SDS011;2705;41.410;2.160;2022-10-13T07:30:25;24.50;;;10.87;;
5363;SDS011;2705;41.410;2.160;2022-10-13T07:32:54;24.20;;;9.67;;
5363;SDS011;2705;41.410;2.160;2022-10-13T07:35:24;29.10;;;11.63;;
5363;SDS011;2705;41.410;2.160;2022-10-13T07:37:58;25.67;;;11.30;;
5363;SDS011;2705;41.410;2.160;2022-10-13T07:40:27;21.13;;;11.10;;
5363;SDS011;2705;41.410;2.160;2022-10-13T07:42:56;26.10;;;11.10;;
5363;SDS011;2705;41.410;2.160;2022-10-13T07:45:26;28.57;;;13.00;;
5363;SDS011;2705;41.410;2.160;2022-10-13T07:47:55;27.57;;;11.00;;
5363;SDS011;2705;41.410;2.160;2022-10-13T07:50:24;32.07;;;10.20;;
5363;SDS011;2705;41.410;2.160;2022-10-13T07:52:54;27.77;;;12.70;;
5363;SDS011;2705;41.410;2.160;2022-10-13T07:55:25;29.47;;;11.13;;
5363;SDS011;2705;41.410;2.160;2022-10-13T07:57:54;23.70;;;10.77;;
5363;SDS011;2705;41.410;2.160;2022-10-13T08:00:28;18.77;;;10.57;;
5363;SDS011;2705;41.410;2.160;2022-10-13T08:02:57;30.30;;;11.97;;
5363;SDS011;2705;41.410;2.160;2022-10-13T08:05:29;30.63;;;13.93;;
5363;SDS011;2705;41.410;2.160;2022-10-13T08:08:01;18.90;;;11.23;;
5363;SDS011;2705;41.410;2.160;2022-10-13T08:10:32;23.57;;;11.63;;
5363;SDS011;2705;41.410;2.160;2022-10-13T08:13:01;21.90;;;11.60;;
5363;SDS011;2705;41.410;2.160;2022-10-13T08:15:31;23.00;;;12.00;;
5363;SDS011;2705;41.410;2.160;2022-10-13T08:18:00;19.73;;;10.00;;
5363;SDS011;2705;41.410;2.160;2022-10-13T08:20:30;27.80;;;10.50;;
5363;SDS011;2705;41.410;2.160;2022-10-13T08:23:09;17.23;;;7.20;;
5363;SDS011;2705;41.410;2.160;2022-10-13T08:25:44;18.73;;;8.17;;
5363;SDS011;2705;41.410;2.160;2022-10-13T08:28:14;17.73;;;7.40;;
5363;SDS011;2705;41.410;2.160;2022-10-13T08:30:45;33.53;;;8.20;;
5363;SDS011;2705;41.410;2.160;2022-10-13T08:33:14;16.73;;;8.90;;
5363;SDS011;2705;41.410;2.160;2022-10-13T08:35:44;18.67;;;7.53;;
5363;SDS011;2705;41.410;2.160;2022-10-13T08:38:14;13.13;;;6.40;;
5363;SDS011;2705;41.410;2.160;2022-10-13T08:40:46;10.30;;;4.50;;
5363;SDS011;2705;41.410;2.160;2022-10-13T08:43:17;15.67;;;5.30;;
5363;SDS011;2705;41.410;2.160;2022-10-13T08:45:50;20.30;;;4.70;;
5363;SDS011;2705;41.410;2.160;2022-10-13T08:48:25;6.87;;;3.83;;
5363;SDS011;2705;41.410;2.160;2022-10-13T08:50:58;12.10;;;3.60;;
5363;SDS011;2705;41.410;2.160;2022-10-13T08:53:30;6.70;;;3.30;;
5363;SDS011;2705;41.410;2.160;2022-10-13T08:56:04;9.27;;;3.90;;
5363;SDS011;2705;41.410;2.160;2022-10-13T08:58:40;4.40;;;2.73;;
5363;SDS011;2705;41.410;2.160;2022-10-13T09:01:13;5.30;;;3.50;;
5363;SDS011;2705;41.410;2.160;2022-10-13T09:03:48;4.20;;;3.00;;
5363;SDS011;2705;41.410;2.160;2022-10-13T09:06:22;8.73;;;3.70;;
5363;SDS011;2705;41.410;2.160;2022-10-13T09:08:58;9.70;;;3.67;;
5363;SDS011;2705;41.410;2.160;2022-10-13T09:11:33;6.13;;;3.50;;
5363;SDS011;2705;41.410;2.160;2022-10-13T09:14:05;6.37;;;3.10;;
5363;SDS011;2705;41.410;2.160;2022-10-13T09:16:38;7.50;;;3.43;;
5363;SDS011;2705;41.410;2.160;2022-10-13T09:19:12;13.77;;;8.13;;
5363;SDS011;2705;41.410;2.160;2022-10-13T09:21:48;8.47;;;3.10;;
5363;SDS011;2705;41.410;2.160;2022-10-13T09:24:19;9.60;;;4.17;;
5363;SDS011;2705;41.410;2.160;2022-10-13T09:27:00;9.70;;;4.20;;
5363;SDS011;2705;41.410;2.160;2022-10-13T09:29:36;5.20;;;3.00;;
5363;SDS011;2705;41.410;2.160;2022-10-13T09:32:17;13.53;;;4.90;;
5363;SDS011;2705;41.410;2.160;2022-10-13T09:34:50;6.97;;;3.10;;
5363;SDS011;2705;41.410;2.160;2022-10-13T09:37:23;15.37;;;3.80;;
5363;SDS011;2705;41.410;2.160;2022-10-13T09:39:59;10.33;;;3.47;;
5363;SDS011;2705;41.410;2.160;2022-10-13T09:42:40;7.27;;;3.70;;
5363;SDS011;2705;41.410;2.160;2022-10-13T09:45:12;7.63;;;4.07;;
5363;SDS011;2705;41.410;2.160;2022-10-13T09:47:48;15.03;;;4.90;;
5363;SDS011;2705;41.410;2.160;2022-10-13T09:50:19;8.33;;;2.83;;
5363;SDS011;2705;41.410;2.160;2022-10-13T09:52:52;13.83;;;4.03;;
5363;SDS011;2705;41.410;2.160;2022-10-13T09:55:37;6.70;;;3.30;;
5363;SDS011;2705;41.410;2.160;2022-10-13T09:58:13;10.83;;;3.87;;
5363;SDS011;2705;41.410;2.160;2022-10-13T10:00:45;6.70;;;3.60;;
5363;SDS011;2705;41.410;2.160;2022-10-13T10:03:20;6.90;;;3.70;;
5363;SDS011;2705;41.410;2.160;2022-10-13T10:05:53;7.83;;;4.10;;
5363;SDS011;2705;41.410;2.160;2022-10-13T10:08:28;10.17;;;4.20;;
5363;SDS011;2705;41.410;2.160;2022-10-13T10:11:26;10.80;;;3.93;;
5363;SDS011;2705;41.410;2.160;2022-10-13T10:14:00;8.83;;;3.70;;
5363;SDS011;2705;41.410;2.160;2022-10-13T10:16:41;10.90;;;3.80;;
5363;SDS011;2705;41.410;2.160;2022-10-13T10:19:15;7.20;;;3.50;;
5363;SDS011;2705;41.410;2.160;2022-10-13T10:21:52;13.60;;;4.30;;
5363;SDS011;2705;41.410;2.160;2022-10-13T10:24:32;14.47;;;4.50;;
5363;SDS011;2705;41.410;2.160;2022-10-13T10:27:10;8.67;;;4.13;;
5363;SDS011;2705;41.410;2.160;2022-10-13T10:29:49;14.90;;;4.70;;
5363;SDS011;2705;41.410;2.160;2022-10-13T10:32:26;17.50;;;5.90;;
5363;SDS011;2705;41.410;2.160;2022-10-13T10:35:03;24.93;;;4.63;;
5363;SDS011;2705;41.410;2.160;2022-10-13T10:37:43;17.97;;;4.23;;
5363;SDS011;2705;41.410;2.160;2022-10-13T10:40:25;16.40;;;4.30;;
5363;SDS011;2705;41.410;2.160;2022-10-13T10:43:12;19.83;;;4.80;;
5363;SDS011;2705;41.410;2.160;2022-10-13T10:45:55;14.43;;;4.93;;
5363;SDS011;2705;41.410;2.160;2022-10-13T10:48:29;8.27;;;4.50;;
5363;SDS011;2705;41.410;2.160;2022-10-13T10:51:04;9.73;;;4.30;;
5363;SDS011;2705;41.410;2.160;2022-10-13T10:53:36;8.60;;;4.27;;
5363;SDS011;2705;41.410;2.160;2022-10-13T10:56:12;11.40;;;5.17;;
5363;SDS011;2705;41.410;2.160;2022-10-13T10:58:48;17.87;;;4.63;;
5363;SDS011;2705;41.410;2.160;2022-10-13T11:01:39;10.10;;;5.27;;
5363;SDS011;2705;41.410;2.160;2022-10-13T11:04:33;12.27;;;4.57;;
5363;SDS011;2705;41.410;2.160;2022-10-13T11:07:12;19.73;;;5.80;;
5363;SDS011;2705;41.410;2.160;2022-10-13T11:10:16;12.27;;;4.73;;
5363;SDS011;2705;41.410;2.160;2022-10-13T11:15:53;9.47;;;4.57;;
5363;SDS011;2705;41.410;2.160;2022-10-13T11:24:44;14.43;;;4.93;;
5363;SDS011;2705;41.410;2.160;2022-10-13T11:27:21;8.10;;;4.40;;
5363;SDS011;2705;41.410;2.160;2022-10-13T11:29:54;9.37;;;4.00;;
5363;SDS011;2705;41.410;2.160;2022-10-13T11:35:28;10.13;;;5.13;;
5363;SDS011;2705;41.410;2.160;2022-10-13T11:38:09;12.20;;;5.50;;
5363;SDS011;2705;41.410;2.160;2022-10-13T11:40:58;13.00;;;4.77;;
5363;SDS011;2705;41.410;2.160;2022-10-13T11:43:45;15.23;;;5.70;;
5363;SDS011;2705;41.410;2.160;2022-10-13T11:46:25;26.20;;;6.23;;
5363;SDS011;2705;41.410;2.160;2022-10-13T11:55:09;15.20;;;5.60;;
5363;SDS011;2705;41.410;2.160;2022-10-13T11:57:42;10.07;;;4.30;;
5363;SDS011;2705;41.410;2.160;2022-10-13T12:00:13;15.40;;;6.60;;
5363;SDS011;2705;41.410;2.160;2022-10-13T12:02:48;7.33;;;5.10;;
5363;SDS011;2705;41.410;2.160;2022-10-13T12:05:20;11.50;;;4.73;;
5363;SDS011;2705;41.410;2.160;2022-10-13T12:07:54;10.90;;;5.40;;
5363;SDS011;2705;41.410;2.160;2022-10-13T12:10:29;18.03;;;5.67;;
5363;SDS011;2705;41.410;2.160;2022-10-13T12:13:04;16.90;;;4.37;;
5363;SDS011;2705;41.410;2.160;2022-10-13T12:15:35;11.03;;;5.20;;
5363;SDS011;2705;41.410;2.160;2022-10-13T12:18:18;10.93;;;5.37;;
5363;SDS011;2705;41.410;2.160;2022-10-13T12:20:53;12.17;;;4.60;;
5363;SDS011;2705;41.410;2.160;2022-10-13T12:23:29;13.80;;;4.33;;
5363;SDS011;2705;41.410;2.160;2022-10-13T12:26:00;11.90;;;5.63;;
5363;SDS011;2705;41.410;2.160;2022-10-13T12:28:42;14.97;;;5.10;;
5363;SDS011;2705;41.410;2.160;2022-10-13T12:31:19;11.37;;;4.17;;
5363;SDS011;2705;41.410;2.160;2022-10-13T12:33:50;9.07;;;3.87;;
5363;SDS011;2705;41.410;2.160;2022-10-13T12:36:21;17.00;;;4.37;;
5363;SDS011;2705;41.410;2.160;2022-10-13T12:38:59;16.83;;;5.30;;
5363;SDS011;2705;41.410;2.160;2022-10-13T12:41:32;9.70;;;4.70;;
5363;SDS011;2705;41.410;2.160;2022-10-13T12:44:03;10.47;;;4.23;;
5363;SDS011;2705;41.410;2.160;2022-10-13T12:46:35;10.60;;;5.07;;
5363;SDS011;2705;41.410;2.160;2022-10-13T12:49:06;31.23;;;7.00;;
5363;SDS011;2705;41.410;2.160;2022-10-13T12:51:41;10.13;;;4.10;;
5363;SDS011;2705;41.410;2.160;2022-10-13T12:54:17;11.77;;;4.50;;
5363;SDS011;2705;41.410;2.160;2022-10-13T12:56:50;8.80;;;4.07;;
5363;SDS011;2705;41.410;2.160;2022-10-13T12:59:22;6.90;;;3.60;;
5363;SDS011;2705;41.410;2.160;2022-10-13T13:01:55;12.73;;;4.13;;
5363;SDS011;2705;41.410;2.160;2022-10-13T13:07:24;8.03;;;3.57;;
5363;SDS011;2705;41.410;2.160;2022-10-13T13:10:02;16.50;;;3.80;;
5363;SDS011;2705;41.410;2.160;2022-10-13T13:12:43;7.47;;;3.67;;
5363;SDS011;2705;41.410;2.160;2022-10-13T13:15:18;8.70;;;3.37;;
5363;SDS011;2705;41.410;2.160;2022-10-13T13:21:09;6.43;;;3.37;;
5363;SDS011;2705;41.410;2.160;2022-10-13T13:23:41;7.13;;;3.20;;
5363;SDS011;2705;41.410;2.160;2022-10-13T13:26:21;12.53;;;3.47;;
5363;SDS011;2705;41.410;2.160;2022-10-13T13:28:52;11.40;;;3.70;;
5363;SDS011;2705;41.410;2.160;2022-10-13T13:31:23;9.07;;;3.57;;
5363;SDS011;2705;41.410;2.160;2022-10-13T13:33:53;8.77;;;3.33;;
5363;SDS011;2705;41.410;2.160;2022-10-13T13:36:24;15.47;;;3.67;;
5363;SDS011;2705;41.410;2.160;2022-10-13T13:38:54;11.47;;;4.13;;
5363;SDS011;2705;41.410;2.160;2022-10-13T13:41:25;12.87;;;3.50;;
5363;SDS011;2705;41.410;2.160;2022-10-13T13:43:56;4.90;;;3.87;;
5363;SDS011;2705;41.410;2.160;2022-10-13T13:46:26;8.13;;;3.80;;
5363;SDS011;2705;41.410;2.160;2022-10-13T13:48:55;7.70;;;3.20;;
5363;SDS011;2705;41.410;2.160;2022-10-13T13:51:24;22.53;;;3.63;;
5363;SDS011;2705;41.410;2.160;2022-10-13T13:53:53;9.30;;;4.20;;
5363;SDS011;2705;41.410;2.160;2022-10-13T13:56:25;7.70;;;3.17;;
5363;SDS011;2705;41.410;2.160;2022-10-13T13:58:54;10.90;;;4.17;;
5363;SDS011;2705;41.410;2.160;2022-10-13T14:01:24;13.07;;;4.17;;
5363;SDS011;2705;41.410;2.160;2022-10-13T14:03:53;6.80;;;3.47;;
5363;SDS011;2705;41.410;2.160;2022-10-13T14:06:23;10.23;;;3.57;;
5363;SDS011;2705;41.410;2.160;2022-10-13T14:08:53;13.13;;;4.27;;
5363;SDS011;2705;41.410;2.160;2022-10-13T14:11:22;9.77;;;3.80;;
5363;SDS011;2705;41.410;2.160;2022-10-13T14:13:54;9.53;;;4.63;;
5363;SDS011;2705;41.410;2.160;2022-10-13T14:16:27;14.43;;;3.90;;
5363;SDS011;2705;41.410;2.160;2022-10-13T14:19:04;6.93;;;3.47;;
5363;SDS011;2705;41.410;2.160;2022-10-13T14:21:34;10.93;;;4.27;;
5363;SDS011;2705;41.410;2.160;2022-10-13T14:24:09;9.87;;;3.73;;
5363;SDS011;2705;41.410;2.160;2022-10-13T14:26:40;10.83;;;3.30;;
5363;SDS011;2705;41.410;2.160;2022-10-13T14:29:10;11.73;;;4.40;;
5363;SDS011;2705;41.410;2.160;2022-10-13T14:31:39;12.23;;;4.90;;
5363;SDS011;2705;41.410;2.160;2022-10-13T14:34:08;10.80;;;3.60;;
5363;SDS011;2705;41.410;2.160;2022-10-13T14:36:39;8.23;;;3.67;;
5363;SDS011;2705;41.410;2.160;2022-10-13T14:39:08;8.13;;;3.53;;
5363;SDS011;2705;41.410;2.160;2022-10-13T14:41:37;14.20;;;4.00;;
5363;SDS011;2705;41.410;2.160;2022-10-13T14:44:09;14.80;;;4.17;;
5363;SDS011;2705;41.410;2.160;2022-10-13T14:46:43;11.23;;;3.73;;
5363;SDS011;2705;41.410;2.160;2022-10-13T14:49:14;8.23;;;3.97;;
5363;SDS011;2705;41.410;2.160;2022-10-13T14:51:46;11.60;;;3.73;;
5363;SDS011;2705;41.410;2.160;2022-10-13T14:54:16;10.40;;;3.63;;
5363;SDS011;2705;41.410;2.160;2022-10-13T14:56:47;6.73;;;3.60;;
5363;SDS011;2705;41.410;2.160;2022-10-13T14:59:16;7.60;;;3.40;;
5363;SDS011;2705;41.410;2.160;2022-10-13T15:01:47;12.03;;;3.00;;
5363;SDS011;2705;41.410;2.160;2022-10-13T15:04:16;13.43;;;4.20;;
5363;SDS011;2705;41.410;2.160;2022-10-13T15:06:46;9.83;;;3.40;;
5363;SDS011;2705;41.410;2.160;2022-10-13T15:09:16;9.67;;;3.13;;
5363;SDS011;2705;41.410;2.160;2022-10-13T15:11:53;12.60;;;3.87;;
5363;SDS011;2705;41.410;2.160;2022-10-13T15:14:22;7.37;;;3.03;;
5363;SDS011;2705;41.410;2.160;2022-10-13T15:16:53;9.23;;;3.17;;
5363;SDS011;2705;41.410;2.160;2022-10-13T15:19:25;13.33;;;3.80;;
5363;SDS011;2705;41.410;2.160;2022-10-13T15:21:55;6.10;;;3.80;;
5363;SDS011;2705;41.410;2.160;2022-10-13T15:24:24;8.97;;;3.83;;
5363;SDS011;2705;41.410;2.160;2022-10-13T15:26:56;4.63;;;3.17;;
5363;SDS011;2705;41.410;2.160;2022-10-13T15:29:28;9.73;;;3.70;;
5363;SDS011;2705;41.410;2.160;2022-10-13T15:32:05;9.73;;;3.83;;
5363;SDS011;2705;41.410;2.160;2022-10-13T15:34:36;12.73;;;4.40;;
5363;SDS011;2705;41.410;2.160;2022-10-13T15:37:06;12.70;;;4.00;;
5363;SDS011;2705;41.410;2.160;2022-10-13T15:39:36;10.30;;;3.80;;
5363;SDS011;2705;41.410;2.160;2022-10-13T15:42:07;13.93;;;3.90;;
5363;SDS011;2705;41.410;2.160;2022-10-13T15:44:40;8.37;;;4.33;;
5363;SDS011;2705;41.410;2.160;2022-10-13T15:47:30;9.20;;;3.80;;
5363;SDS011;2705;41.410;2.160;2022-10-13T15:50:01;8.00;;;3.67;;
5363;SDS011;2705;41.410;2.160;2022-10-13T15:52:30;10.20;;;4.00;;
5363;SDS011;2705;41.410;2.160;2022-10-13T15:55:04;10.47;;;4.57;;
5363;SDS011;2705;41.410;2.160;2022-10-13T15:57:36;11.77;;;3.77;;
5363;SDS011;2705;41.410;2.160;2022-10-13T16:00:06;15.20;;;4.03;;
5363;SDS011;2705;41.410;2.160;2022-10-13T16:02:40;6.87;;;3.17;;
5363;SDS011;2705;41.410;2.160;2022-10-13T16:05:13;10.23;;;4.37;;
5363;SDS011;2705;41.410;2.160;2022-10-13T16:07:43;9.30;;;3.80;;
5363;SDS011;2705;41.410;2.160;2022-10-13T16:10:13;17.50;;;4.40;;
5363;SDS011;2705;41.410;2.160;2022-10-13T16:12:47;13.10;;;4.40;;
5363;SDS011;2705;41.410;2.160;2022-10-13T16:15:17;9.57;;;4.30;;
5363;SDS011;2705;41.410;2.160;2022-10-13T16:17:46;9.87;;;3.60;;
5363;SDS011;2705;41.410;2.160;2022-10-13T16:20:18;8.30;;;3.60;;
5363;SDS011;2705;41.410;2.160;2022-10-13T16:22:51;11.80;;;3.70;;
5363;SDS011;2705;41.410;2.160;2022-10-13T16:25:21;10.80;;;3.27;;
5363;SDS011;2705;41.410;2.160;2022-10-13T16:27:52;8.07;;;3.47;;
5363;SDS011;2705;41.410;2.160;2022-10-13T16:30:22;12.87;;;3.40;;
5363;SDS011;2705;41.410;2.160;2022-10-13T16:32:51;10.07;;;3.00;;
5363;SDS011;2705;41.410;2.160;2022-10-13T16:35:20;9.90;;;3.60;;
5363;SDS011;2705;41.410;2.160;2022-10-13T16:37:50;8.53;;;3.53;;
5363;SDS011;2705;41.410;2.160;2022-10-13T16:40:19;16.80;;;4.77;;